Latest Weather Observations for Windorah

IDQ60801

Issued at 9:42 am EST Sunday 17 February 2019 (issued every 10 minutes, with the page automatically refreshed every 10 minutes)

About weather observations | Map of weather stations | Latest weather observations for QLD | Other Formats
Station Details ID: 038076 Name: WINDORAH AIRPORT Lat: -25.41 Lon: 142.66 Height: 132.16 m
Data from the previous 72 hours. | See also: Recent months at Windorah
Date/Time
EST
Temp
°C
App
Temp
°C
Dew
Point
°C
Rel
Hum
%
Delta-T
°C
Wind Press
QNH
hPa
Press
MSL
hPa
Rain since
9am
mm
Dir  Spd
km/h
Gust
km/h
Spd
kts
Gust
kts
17/09:30am 33.1 32.2 18.1 41 9.8 N 20 28 11 15 1010.7 1009.8 0.0
17/09:00am 31.8 31.8 20.1 50 7.8 NNE 20 26 11 14 1010.6 1009.7 0.0
17/08:30am 29.9 29.5 19.0 52 7.1 N 19 28 10 15 1010.5 1009.6 0.0
17/08:00am 29.0 28.6 19.0 54 6.5 NNE 19 24 10 13 1010.4 1009.5 0.0
17/07:30am 27.7 27.8 18.4 57 6.0 NNE 15 22 8 12 1010.0 1009.0 0.0
17/07:00am 26.7 27.6 18.3 60 5.4 NNE 11 15 6 8 1009.9 1008.9 0.0
17/06:30am 26.3 26.8 18.4 61 5.0 N 13 19 7 10 1009.5 1008.5 0.0
17/06:00am 26.5 26.3 18.6 62 5.1 N 17 20 9 11 1009.3 1008.3 0.0
17/05:30am 26.5 27.1 18.6 62 5.1 NNE 13 19 7 10 1009.0 1008.0 0.0
17/05:00am 26.3 26.9 18.7 63 4.9 NNE 13 17 7 9 1008.6 1007.6 0.0
17/04:30am 26.6 27.2 18.7 62 5.1 NNE 13 17 7 9 1008.3 1007.3 0.0
17/04:00am 26.9 27.5 18.7 60 5.3 NNE 13 17 7 9 1008.1 1007.1 0.0
17/03:30am 26.8 27.4 18.6 60 5.3 NNE 13 17 7 9 1008.1 1007.1 0.0
17/03:00am 26.9 27.5 18.5 60 5.4 NNE 13 17 7 9 1008.2 1007.2 0.0
17/02:30am 27.3 27.6 18.0 56 5.9 NNE 13 15 7 8 1008.5 1007.5 0.0
17/02:00am 27.8 28.1 17.9 54 6.3 NNE 13 17 7 9 1008.6 1007.6 0.0
17/01:30am 28.2 27.5 17.4 52 6.8 NNE 17 22 9 12 1008.8 1007.8 0.0
17/01:00am 29.6 28.0 16.1 44 8.4 N 19 24 10 13 1008.9 1007.9 0.0
17/12:30am 30.2 27.8 13.9 37 9.9 NNE 19 26 10 14 1009.5 1008.5 0.0
17/12:00am 33.1 28.2 7.1 20 14.3 ENE 22 39 12 21 1009.6 1008.6 0.0
 
Date/Time
EST
Temp
°C
App
Temp
°C
Dew
Point
°C
Rel
Hum
%
Delta-T
°C
Wind Press
QNH
hPa
Press
MSL
hPa
Rain since
9am
mm
Dir  Spd
km/h
Gust
km/h
Spd
kts
Gust
kts
16/11:59pm 33.1 28.6 7.1 20 14.3 ENE 20 39 11 21 1009.6 1008.6 0.0
16/11:30pm 29.7 26.8 8.2 26 11.8 NNW 13 19 7 10 1009.2 1008.2 0.0
16/11:00pm 30.3 28.3 8.7 26 12.1 N 9 11 5 6 1009.2 1008.2 0.0
16/10:30pm 30.8 28.4 8.5 25 12.4 N 11 11 6 6 1009.5 1008.5 0.0
16/10:00pm 31.9 29.6 7.5 22 13.5 NNE 9 11 5 6 1009.5 1008.5 0.0
16/09:30pm 32.3 29.5 8.5 23 13.4 NNE 13 15 7 8 1009.5 1008.5 0.0
16/09:00pm 33.6 30.4 6.8 19 14.7 NE 13 15 7 8 1009.3 1008.3 0.0
16/08:30pm 33.6 30.6 6.0 18 15.0 NE 11 13 6 7 1009.0 1008.0 0.0
16/08:00pm 34.4 33.3 5.0 16 15.8 CALM 0 0 0 0 1008.7 1007.7 0.0
16/07:30pm 35.7 34.2 3.0 13 17.1 CALM 0 0 0 0 1008.5 1007.5 0.0
16/07:00pm 37.9 34.9 1.0 10 19.0 W 6 11 3 6 1008.1 1007.1 0.0
16/06:30pm 38.6 35.5 1.6 10 19.3 N 7 15 4 8 1007.8 1006.8 0.0
16/06:00pm 38.7 35.5 3.0 11 19.0 NNW 9 17 5 9 1007.6 1006.6 0.0
16/05:30pm 38.7 35.3 1.6 10 19.3 N 9 20 5 11 1007.6 1006.6 0.0
16/05:00pm 39.0 35.2 1.9 10 19.5 N 11 19 6 10 1007.5 1006.5 0.0
16/04:30pm 39.7 35.6 2.4 10 19.8 WNW 13 19 7 10 1007.7 1006.7 0.0
16/04:00pm 39.9 35.8 2.5 10 19.9 N 13 20 7 11 1007.9 1006.9 0.0
16/03:30pm 39.6 35.8 3.7 11 19.4 N 13 26 7 14 1008.2 1007.2 0.0
16/03:00pm 39.2 34.3 2.0 10 19.6 N 17 39 9 21 1008.6 1007.6 0.0
16/02:30pm 39.1 34.9 1.9 10 19.5 NW 13 20 7 11 1009.1 1008.1 0.0
16/02:00pm 38.9 34.2 3.1 11 19.1 N 17 28 9 15 1009.7 1008.7 0.0
16/01:30pm 38.2 34.8 3.8 12 18.5 NW 11 22 6 12 1010.0 1009.0 0.0
16/01:00pm 38.3 33.9 2.7 11 18.8 NNW 15 30 8 16 1010.4 1009.5 0.0
16/12:30pm 38.0 33.6 4.8 13 18.1 NNW 17 26 9 14 1011.0 1010.0 0.0
16/12:00pm 37.1 32.8 7.1 16 16.9 N 19 24 10 13 1011.4 1010.4 0.0
16/11:30am 35.8 31.7 6.1 16 16.3 N 17 26 9 14 1011.8 1010.8 0.0
16/11:00am 35.6 31.1 5.9 16 16.3 N 19 24 10 13 1012.2 1011.2 0.0
16/10:30am 34.6 30.3 6.8 18 15.4 N 19 30 10 16 1012.5 1011.5 0.0
16/10:00am 32.4 27.2 3.4 16 15.0 N 20 26 11 14 1012.7 1011.7 0.0
16/09:30am 31.0 25.9 3.1 17 14.2 NNE 19 28 10 15 1012.5 1011.5 0.0
16/09:00am 29.2 24.8 4.6 21 12.7 NNE 17 24 9 13 1012.5 1011.5 0.0
16/08:30am 28.2 24.8 3.8 21 12.4 NNE 11 20 6 11 1012.2 1011.2 0.0
16/08:00am 25.3 22.5 3.3 24 10.9 NW 7 11 4 6 1011.9 1010.9 0.0
16/07:30am 23.8 21.3 3.7 27 9.9 NW 6 9 3 5 1011.5 1010.5 0.0
16/07:00am 22.4 19.4 4.0 30 9.0 NW 9 13 5 7 1011.3 1010.3 0.0
16/06:30am 21.6 17.9 2.3 28 9.1 WNW 11 13 6 7 1011.1 1010.1 0.0
16/06:00am 21.8 18.3 1.5 26 9.4 WNW 9 11 5 6 1010.5 1009.6 0.0
16/05:30am 22.0 18.9 3.6 30 8.9 WNW 9 11 5 6 1010.2 1009.2 0.0
16/05:00am 22.3 19.2 3.4 29 9.2 WNW 9 11 5 6 1009.9 1008.9 0.0
16/04:30am 23.0 19.7 2.5 26 9.8 WNW 9 9 5 5 1009.8 1008.8 0.0
16/04:00am 22.9 19.8 3.4 28 9.5 W 9 11 5 6 1009.7 1008.7 0.0
16/03:30am 23.4 20.1 4.4 29 9.4 NW 11 13 6 7 1009.9 1008.9 0.0
16/03:00am 23.5 20.6 4.9 30 9.3 WNW 9 11 5 6 1009.9 1008.9 0.0
16/02:30am 23.6 20.8 5.0 30 9.4 WNW 9 9 5 5 1010.0 1009.0 0.0
16/02:00am 23.9 21.4 4.8 29 9.6 WSW 7 7 4 4 1010.3 1009.3 0.0
16/01:30am 25.1 21.8 2.5 23 11.0 SW 9 11 5 6 1010.6 1009.7 0.0
16/01:00am 26.2 23.0 2.8 22 11.5 SW 9 11 5 6 1011.2 1010.2 0.0
16/12:30am 26.8 23.4 2.0 20 12.1 WSW 9 11 5 6 1011.4 1010.4 0.0
16/12:00am 27.3 24.5 3.1 21 12.1 WSW 7 11 4 6 1011.6 1010.6 0.0
 
Date/Time
EST
Temp
°C
App
Temp
°C
Dew
Point
°C
Rel
Hum
%
Delta-T
°C
Wind Press
QNH
hPa
Press
MSL
hPa
Rain since
9am
mm
Dir  Spd
km/h
Gust
km/h
Spd
kts
Gust
kts
15/11:30pm 27.7 24.1 2.7 20 12.4 WSW 11 13 6 7 1011.6 1010.6 0.0
15/11:00pm 27.9 24.8 3.6 21 12.3 WSW 9 13 5 7 1011.8 1010.8 0.0
15/10:30pm 28.6 25.3 4.8 22 12.3 WSW 11 13 6 7 1011.9 1010.9 0.0
15/10:00pm 28.8 25.3 3.6 20 12.8 W 11 13 6 7 1011.8 1010.8 0.0
15/09:30pm 29.3 26.2 5.4 22 12.5 W 11 11 6 6 1011.6 1010.6 0.0
15/09:00pm 30.4 27.0 4.2 19 13.6 W 11 11 6 6 1011.4 1010.4 0.0
15/08:30pm 31.5 27.9 2.7 16 14.6 W 11 13 6 7 1011.2 1010.2 0.0
15/08:00pm 32.6 29.2 1.7 14 15.6 W 9 11 5 6 1010.9 1009.9 0.0
15/07:30pm 34.2 30.8 -0.4 11 17.0 WSW 7 9 4 5 1010.4 1009.5 0.0
15/07:00pm 36.2 32.6 -3.3 8 18.8 SW 6 7 3 4 1010.1 1009.1 0.0
15/06:30pm 36.9 33.2 -2.7 8 19.1 SW 7 11 4 6 1010.0 1009.0 0.0
15/06:00pm 37.0 32.9 -2.7 8 19.2 SSW 9 13 5 7 1010.0 1009.0 0.0
15/05:30pm 36.9 33.2 -2.7 8 19.1 SW 7 15 4 8 1010.0 1009.0 0.0
15/05:00pm 36.9 32.1 -2.7 8 19.1 SSW 13 19 7 10 1010.1 1009.1 0.0
15/04:30pm 36.8 32.5 -4.6 7 19.3 SSW 9 15 5 8 1010.2 1009.2 0.0
15/04:00pm 36.8 31.6 -2.8 8 19.0 SSW 15 24 8 13 1010.3 1009.3 0.0
15/03:30pm 36.8 32.0 -2.8 8 19.0 SSW 13 20 7 11 1010.6 1009.7 0.0
15/03:00pm 36.3 31.0 -3.2 8 18.8 SE 15 33 8 18 1011.0 1010.0 0.0
15/02:30pm 36.2 31.3 -3.3 8 18.8 E 13 22 7 12 1011.5 1010.5 0.0
15/02:00pm 36.0 30.9 -1.8 9 18.4 S 15 22 8 12 1012.0 1011.0 0.0
15/01:30pm 35.1 29.7 -4.1 8 18.2 S 15 22 8 12 1012.3 1011.3 0.0
15/01:00pm 35.2 30.0 -2.4 9 18.0 S 15 26 8 14 1012.8 1011.8 0.0
15/12:30pm 35.0 30.2 -2.6 9 17.9 S 13 24 7 13 1013.1 1012.1 0.0
15/12:00pm 33.8 28.5 -3.5 9 17.3 SE 15 24 8 13 1013.6 1012.6 0.0
15/11:30am 33.5 28.2 -3.7 9 17.2 SE 15 20 8 11 1014.1 1013.1 0.0
15/11:00am 32.6 27.0 -2.9 10 16.5 SSE 17 26 9 14 1014.6 1013.6 0.0
15/10:30am 32.0 26.0 -3.4 10 16.3 ESE 19 26 10 14 1014.9 1013.9 0.0
15/10:00am 31.0 25.0 -2.9 11 15.6 SE 19 26 10 14 1014.9 1013.9 0.0
15/09:30am 29.7 23.7 -2.7 12 14.8 SE 19 26 10 14 1015.0 1014.0 0.0
15/09:00am 28.3 23.4 -0.8 15 13.6 SE 15 19 8 10 1014.8 1013.8 0.0
15/08:30am 25.8 21.3 -0.3 18 12.1 SSE 13 17 7 9 1014.7 1013.7 0.0
15/08:00am 22.7 19.4 2.2 26 9.7 S 9 11 5 6 1014.5 1013.5 0.0
15/07:30am 20.9 18.2 3.6 32 8.3 SW 7 9 4 5 1014.4 1013.4 0.0
15/07:00am 19.3 16.3 3.9 36 7.4 SW 9 11 5 6 1014.2 1013.2 0.0
15/06:30am 17.0 15.1 6.8 51 5.1 WSW 6 7 3 4 1013.9 1012.9 0.0
15/06:00am 17.0 15.0 6.2 49 5.3 WSW 6 6 3 3 1013.6 1012.6 0.0
15/05:30am 19.2 16.4 3.4 35 7.5 SSW 7 9 4 5 1013.3 1012.3 0.0
15/05:00am 19.5 16.4 3.6 35 7.6 SSW 9 9 5 5 1013.0 1012.0 0.0
15/04:30am 19.7 16.6 3.4 34 7.7 SSW 9 11 5 6 1012.8 1011.8 0.0
15/04:00am 19.8 16.8 3.9 35 7.6 S 9 11 5 6 1012.6 1011.6 0.0
15/03:30am 20.1 16.6 3.3 33 8.0 S 11 11 6 6 1012.5 1011.5 0.0
15/03:00am 20.4 17.3 3.6 33 8.1 S 9 11 5 6 1012.5 1011.5 0.0
15/02:30am 20.8 17.5 2.6 30 8.6 S 9 11 5 6 1012.7 1011.7 0.0
15/02:00am 21.3 17.9 2.1 28 9.0 S 9 11 5 6 1012.8 1011.8 0.0
15/01:30am 21.9 18.5 1.6 26 9.5 S 9 11 5 6 1012.9 1011.9 0.0
15/01:00am 22.1 18.7 1.7 26 9.5 S 9 11 5 6 1013.1 1012.1 0.0
15/12:30am 23.0 19.4 0.8 23 10.3 SSE 9 13 5 7 1013.2 1012.2 0.0
15/12:00am 23.3 19.4 1.0 23 10.4 SSE 11 13 6 7 1013.5 1012.5 0.0
 
Date/Time
EST
Temp
°C
App
Temp
°C
Dew
Point
°C
Rel
Hum
%
Delta-T
°C
Wind Press
QNH
hPa
Press
MSL
hPa
Rain since
9am
mm
Dir  Spd
km/h
Gust
km/h
Spd
kts
Gust
kts
14/11:30pm 24.1 19.7 0.4 21 11.0 S 13 15 7 8 1013.6 1012.6 0.0
14/11:00pm 24.7 21.1 0.9 21 11.2 SSE 9 13 5 7 1013.6 1012.6 0.0
14/10:30pm 25.1 21.6 1.3 21 11.3 SSE 9 13 5 7 1013.7 1012.7 0.0
14/10:00pm 25.5 22.1 1.6 21 11.4 SSE 9 11 5 6 1013.5 1012.5 0.0
14/09:30pm 25.9 22.5 1.9 21 11.6 SSE 9 13 5 7 1013.3 1012.3 0.0
14/09:00pm 26.1 22.4 2.1 21 11.6 S 11 13 6 7 1013.0 1012.0 0.0
14/08:30pm 27.3 23.0 0.9 18 12.6 S 13 15 7 8 1012.7 1011.7 0.0
14/08:00pm 28.1 23.6 -0.1 16 13.3 S 13 15 7 8 1012.3 1011.3 0.0
14/07:30pm 29.5 24.8 -1.8 13 14.5 S 13 17 7 9 1012.0 1011.0 0.0
14/07:00pm 31.0 25.4 -2.9 11 15.6 S 17 20 9 11 1011.5 1010.5 0.0
14/06:30pm 31.9 25.8 -3.5 10 16.2 SSE 19 24 10 13 1011.2 1010.2 0.0
14/06:00pm 32.3 25.9 -4.6 9 16.7 S 20 30 11 16 1010.9 1009.9 0.0
14/05:30pm 32.4 26.2 -4.5 9 16.7 S 19 30 10 16 1010.9 1009.9 0.0
14/05:00pm 32.4 26.6 -4.5 9 16.7 S 17 30 9 16 1011.0 1010.0 0.0
14/04:30pm 32.7 26.9 -4.3 9 16.8 S 17 24 9 13 1011.0 1010.0 0.0
14/04:00pm 32.8 27.8 -4.2 9 16.9 ESE 13 20 7 11 1011.1 1010.1 0.0
14/03:30pm 32.7 26.9 -4.3 9 16.8 SSW 17 26 9 14 1011.2 1010.2 0.0
14/03:00pm 32.2 26.2 -3.2 10 16.4 SSE 19 26 10 14 1011.6 1010.6 0.0
14/02:30pm 31.9 26.2 -3.5 10 16.2 S 17 26 9 14 1011.7 1010.7 0.0
14/02:00pm 32.2 26.9 -3.2 10 16.4 SSE 15 20 8 11 1011.9 1010.9 0.0
14/01:30pm 30.9 26.0 -3.0 11 15.6 S 13 20 7 11 1012.4 1011.4 0.0
14/01:00pm 30.5 25.2 -3.3 11 15.4 S 15 26 8 14 1012.7 1011.7 0.0
14/12:30pm 29.6 24.8 -2.8 12 14.8 SSE 13 22 7 12 1013.1 1012.1 0.0
14/12:00pm 30.7 26.1 -0.8 13 15.0 SE 13 24 7 13 1013.4 1012.4 0.0
14/11:30am 29.0 23.4 -3.2 12 14.5 ESE 17 24 9 13 1013.7 1012.7 0.0
14/11:00am 28.0 21.7 -4.0 12 14.1 E 20 28 11 15 1014.0 1013.0 0.0
14/10:30am 27.6 21.3 -4.3 12 13.9 ESE 20 26 11 14 1014.1 1013.1 0.0
14/10:00am 27.0 20.4 -3.7 13 13.5 SE 22 32 12 17 1014.0 1013.0 0.0

Other Formats:

Comma delimited format used in spreadsheet applications
http://www.bom.gov.au/fwo/IDQ60801/IDQ60801.94489.axf

JavaScript Object Notation format (JSON) in row-major order
http://www.bom.gov.au/fwo/IDQ60801/IDQ60801.94489.json